Time;durP1;ratioP1;P1;durP2;ratioP2;P2;SDS_P1;SDS_P2;PMS_P1;PMS_P2;Temp;Humidity;BMP_temperature;BMP_pressure;BME280_temperature;BME280_humidity;BME280_pressure;Samples;Min_cycle;Max_cycle;Signal;HPM_P1;HPM_P2
2023/12/03 00:00:48;;;;;;;12.85;2.58;;;;;;;12.59;52.32;93823.66;5073201;28;20039;-74
2023/12/03 00:03:14;;;;;;;9.65;2.13;;;;;;;12.19;52.38;93830.47;5105623;28;20030;-74
2023/12/03 00:05:39;;;;;;;11.73;2.15;;;;;;;12.27;50.43;93830.50;5093478;28;20121;-74
2023/12/03 00:08:05;;;;;;;8.10;2.13;;;;;;;12.30;52.28;93840.59;5093126;28;20032;-73
2023/12/03 00:10:31;;;;;;;13.48;2.42;;;;;;;12.23;51.90;93829.16;5110376;28;20031;-73
2023/12/03 00:12:56;;;;;;;9.82;1.83;;;;;;;12.17;50.67;93816.81;5110683;28;20478;-74
2023/12/03 00:15:22;;;;;;;9.90;1.98;;;;;;;12.52;50.56;93839.16;5110514;28;20032;-74
2023/12/03 00:17:48;;;;;;;14.68;1.88;;;;;;;12.73;49.46;93825.59;5111521;28;20032;-74
2023/12/03 00:20:13;;;;;;;8.95;1.67;;;;;;;12.94;48.72;93825.91;5111881;28;20462;-74
2023/12/03 00:22:39;;;;;;;9.25;1.70;;;;;;;13.14;48.19;93834.19;5058442;28;20036;-74
2023/12/03 00:25:04;;;;;;;8.15;1.60;;;;;;;13.25;48.21;93827.81;5089007;28;20032;-74
2023/12/03 00:27:30;;;;;;;9.10;1.83;;;;;;;13.51;47.24;93832.00;5072579;28;20036;-74
2023/12/03 00:29:55;;;;;;;7.95;1.60;;;;;;;13.49;47.33;93826.97;5103107;28;20044;-75
2023/12/03 00:32:22;;;;;;;9.48;1.75;;;;;;;13.58;47.28;93825.94;5077702;28;20056;-75
2023/12/03 00:34:47;;;;;;;15.55;2.10;;;;;;;13.57;47.41;93826.13;5089887;28;20039;-73
2023/12/03 00:37:12;;;;;;;8.85;1.60;;;;;;;13.64;47.37;93819.25;5092181;28;20055;-73
2023/12/03 00:39:38;;;;;;;9.48;1.63;;;;;;;13.76;47.29;93817.91;5110113;28;20439;-74
2023/12/03 00:42:03;;;;;;;10.05;1.83;;;;;;;13.83;46.86;93805.78;5081293;28;20047;-74
2023/12/03 00:44:29;;;;;;;13.98;1.70;;;;;;;13.92;45.88;93796.09;5067341;28;20051;-73
2023/12/03 00:46:54;;;;;;;8.85;1.73;;;;;;;13.95;46.55;93816.63;5081956;28;20036;-73
2023/12/03 00:49:20;;;;;;;10.38;1.70;;;;;;;13.93;46.28;93807.34;5085309;28;20047;-74
2023/12/03 00:51:45;;;;;;;9.88;1.55;;;;;;;13.86;46.36;93796.78;5068899;28;20532;-74
2023/12/03 00:54:11;;;;;;;11.45;1.95;;;;;;;13.85;46.58;93819.47;5086443;28;20039;-74
2023/12/03 00:56:36;;;;;;;14.10;2.08;;;;;;;14.05;45.79;93822.47;5069285;28;20035;-73
2023/12/03 00:59:01;;;;;;;16.42;2.08;;;;;;;14.16;46.05;93826.47;5087326;28;20262;-73
2023/12/03 01:01:27;;;;;;;10.15;1.77;;;;;;;14.18;45.70;93823.69;5068368;28;20028;-74
2023/12/03 01:03:52;;;;;;;8.40;1.50;;;;;;;14.08;46.03;93827.34;5068329;28;20034;-73
2023/12/03 01:06:18;;;;;;;9.27;1.80;;;;;;;14.15;45.90;93829.25;5087564;28;20040;-71
2023/12/03 01:08:43;;;;;;;12.20;2.05;;;;;;;14.12;46.40;93837.44;5066915;28;20405;-72
2023/12/03 01:11:09;;;;;;;9.20;1.50;;;;;;;14.01;46.17;93815.13;5086882;28;20039;-72
2023/12/03 01:13:34;;;;;;;9.30;1.80;;;;;;;14.11;45.96;93834.03;5069306;28;20485;-73
2023/12/03 01:16:00;;;;;;;10.30;1.88;;;;;;;14.10;45.87;93832.41;5088906;28;20032;-74
2023/12/03 01:18:25;;;;;;;11.05;2.60;;;;;;;14.21;45.96;93847.69;5090731;28;20037;-72
2023/12/03 01:20:51;;;;;;;13.52;1.95;;;;;;;14.07;46.08;93817.88;5094722;28;20044;-72
2023/12/03 01:23:16;;;;;;;7.10;1.60;;;;;;;14.18;45.99;93848.03;5091332;28;20418;-73
2023/12/03 01:25:42;;;;;;;10.35;1.75;;;;;;;14.19;46.03;93854.06;5087847;28;20035;-73
2023/12/03 01:28:07;;;;;;;9.10;1.65;;;;;;;14.02;46.30;93848.91;5088465;28;20024;-73
2023/12/03 01:30:32;;;;;;;12.13;3.00;;;;;;;14.22;46.18;93864.97;5054530;28;20617;-73
2023/12/03 01:32:58;;;;;;;8.57;1.65;;;;;;;14.23;45.85;93866.59;5088581;28;20036;-73
2023/12/03 01:35:23;;;;;;;15.23;2.00;;;;;;;14.14;46.24;93853.75;5069770;28;20028;-73
2023/12/03 01:37:49;;;;;;;10.02;2.45;;;;;;;14.15;46.50;93858.81;5088176;28;20039;-73
2023/12/03 01:40:14;;;;;;;14.25;2.78;;;;;;;14.15;46.28;93832.72;5072219;28;20039;-73
2023/12/03 01:42:39;;;;;;;12.55;1.83;;;;;;;14.17;46.70;93851.59;5088013;28;20028;-74
2023/12/03 01:45:05;;;;;;;8.88;1.95;;;;;;;13.89;47.16;93840.81;5090801;28;20417;-73
2023/12/03 01:47:31;;;;;;;13.43;2.10;;;;;;;13.84;47.01;93850.97;5077602;28;20032;-74
2023/12/03 01:49:59;;;;;;;13.85;2.00;;;;;;;13.90;46.84;93845.06;5093205;28;20024;-74
2023/12/03 01:52:24;;;;;;;11.70;1.88;;;;;;;13.88;46.65;93827.97;5075827;28;20028;-73
2023/12/03 01:54:49;;;;;;;15.60;2.25;;;;;;;13.87;47.71;93840.16;5094023;28;20500;-74
2023/12/03 01:57:15;;;;;;;7.25;2.05;;;;;;;13.91;47.89;93846.69;5092619;28;20059;-73
2023/12/03 01:59:40;;;;;;;12.63;2.17;;;;;;;13.82;47.90;93852.94;5075681;28;20103;-73
2023/12/03 02:02:06;;;;;;;14.05;1.60;;;;;;;13.66;47.83;93869.47;5092462;28;20494;-74
2023/12/03 02:04:31;;;;;;;8.90;1.88;;;;;;;13.89;47.64;93855.69;5092428;28;20028;-74
2023/12/03 02:06:56;;;;;;;10.05;1.77;;;;;;;13.92;47.51;93863.97;5075479;28;20028;-73
2023/12/03 02:09:23;;;;;;;6.40;1.52;;;;;;;13.80;48.95;93850.50;5092386;28;20020;-73
2023/12/03 02:11:48;;;;;;;8.52;1.63;;;;;;;13.84;49.82;93866.63;5075565;28;20136;-74
2023/12/03 02:14:14;;;;;;;9.48;2.05;;;;;;;13.37;50.14;93864.81;5091160;28;20497;-74
2023/12/03 02:16:48;;;;;;;13.43;2.13;;;;;;;13.44;50.27;93857.97;5075231;28;20085;-74
2023/12/03 02:19:14;;;;;;;12.52;2.25;;;;;;;13.22;51.73;93872.50;5092158;28;20032;-73
2023/12/03 02:21:40;;;;;;;13.75;2.00;;;;;;;13.36;52.51;93861.41;5075251;28;20034;-73
2023/12/03 02:24:06;;;;;;;6.75;1.90;;;;;;;13.20;52.60;93869.22;5058404;28;20032;-74
2023/12/03 02:26:31;;;;;;;9.13;1.83;;;;;;;12.91;52.14;93851.50;5091324;28;20508;-73
2023/12/03 02:28:56;;;;;;;7.40;2.10;;;;;;;12.88;53.73;93864.88;5092958;28;20047;-73
2023/12/03 02:31:22;;;;;;;8.57;1.80;;;;;;;12.72;54.09;93855.25;5093105;28;20044;-73
2023/12/03 02:33:58;;;;;;;10.73;1.90;;;;;;;12.47;52.90;93860.47;5074886;28;20035;-73
2023/12/03 02:36:24;;;;;;;5.88;2.10;;;;;;;12.42;54.87;93862.72;5093022;28;20028;-73
2023/12/03 02:38:49;;;;;;;10.82;2.00;;;;;;;12.26;55.42;93849.72;5074842;28;20459;-73
2023/12/03 02:41:15;;;;;;;9.82;2.33;;;;;;;12.03;55.39;93865.09;5091742;28;20089;-73
2023/12/03 02:43:40;;;;;;;13.13;2.60;;;;;;;12.06;55.51;93854.38;5090748;28;20028;-73
2023/12/03 02:46:06;;;;;;;17.88;2.45;;;;;;;11.82;54.42;93855.91;5091398;28;20082;-73
2023/12/03 02:48:31;;;;;;;12.77;2.08;;;;;;;11.70;54.33;93854.56;5091471;28;20024;-73
2023/12/03 02:50:57;;;;;;;11.18;2.20;;;;;;;12.00;53.38;93850.59;5091448;28;20502;-74
2023/12/03 02:53:22;;;;;;;13.48;1.80;;;;;;;12.18;53.15;93850.50;5091456;28;20020;-73
2023/12/03 02:55:47;;;;;;;12.80;1.92;;;;;;;12.19;52.61;93851.31;5091176;28;20036;-73
2023/12/03 02:58:13;;;;;;;10.95;1.98;;;;;;;12.30;52.60;93837.97;5091620;28;20494;-73
2023/12/03 03:00:38;;;;;;;9.43;1.88;;;;;;;12.44;51.99;93857.38;5105328;28;20031;-73
2023/12/03 03:03:04;;;;;;;11.32;2.00;;;;;;;12.57;51.88;93872.53;5111583;28;20401;-74
2023/12/03 03:05:29;;;;;;;11.90;3.58;;;;;;;12.57;52.02;93872.53;5112782;28;20034;-73
2023/12/03 03:07:55;;;;;;;9.70;2.00;;;;;;;12.69;51.80;93886.84;5108808;28;20463;-73
2023/12/03 03:10:20;;;;;;;13.05;2.20;;;;;;;12.65;51.25;93867.34;5092780;28;20489;-74
2023/12/03 03:12:45;;;;;;;12.82;1.77;;;;;;;12.87;50.78;93886.69;5092327;28;20047;-74
2023/12/03 03:15:11;;;;;;;9.38;1.98;;;;;;;13.04;50.79;93895.31;5091089;28;20394;-73
2023/12/03 03:17:36;;;;;;;12.15;2.15;;;;;;;12.89;51.15;93882.13;5091002;28;20024;-73
2023/12/03 03:20:02;;;;;;;8.68;2.05;;;;;;;12.82;51.88;93902.84;5090657;28;20032;-73
2023/12/03 03:22:28;;;;;;;13.82;2.20;;;;;;;12.85;52.00;93917.34;5092003;28;20117;-74
2023/12/03 03:24:53;;;;;;;11.45;1.83;;;;;;;12.86;51.66;93913.75;5091001;28;20085;-74
2023/12/03 03:27:18;;;;;;;10.68;2.22;;;;;;;12.84;52.11;93907.88;5090820;28;20425;-74
2023/12/03 03:29:44;;;;;;;8.18;1.63;;;;;;;12.88;52.14;93915.22;5090674;28;20101;-74
2023/12/03 03:32:09;;;;;;;12.38;1.88;;;;;;;12.87;52.02;93905.78;5090606;28;20028;-74
2023/12/03 03:34:35;;;;;;;10.85;2.25;;;;;;;12.74;52.75;93915.84;5090688;28;20036;-74
2023/12/03 03:37:00;;;;;;;12.52;2.40;;;;;;;12.71;53.99;93906.56;5072707;28;20024;-74
2023/12/03 03:39:26;;;;;;;13.77;1.98;;;;;;;12.37;54.91;93904.09;5100877;28;20034;-73
2023/12/03 03:41:51;;;;;;;9.20;2.08;;;;;;;12.25;56.08;93920.97;5093672;28;20035;-73
2023/12/03 03:44:17;;;;;;;12.65;2.80;;;;;;;12.14;55.77;93918.66;5093803;28;20089;-73
2023/12/03 03:46:42;;;;;;;9.05;2.97;;;;;;;12.11;56.49;93926.78;5110802;28;20028;-74
2023/12/03 03:49:07;;;;;;;7.78;2.67;;;;;;;12.02;56.50;93936.34;5110399;28;20023;-74
2023/12/03 03:51:33;;;;;;;9.18;2.10;;;;;;;12.17;57.22;93936.56;5093770;28;20038;-73
2023/12/03 03:53:58;;;;;;;8.60;2.45;;;;;;;12.06;57.27;93948.06;5076596;28;20485;-74
2023/12/03 03:56:24;;;;;;;9.63;2.17;;;;;;;11.67;58.23;93958.09;5110557;28;20032;-73
2023/12/03 03:58:49;;;;;;;8.32;1.92;;;;;;;11.74;58.68;93961.75;5076129;28;20508;-73
2023/12/03 04:01:14;;;;;;;15.60;3.25;;;;;;;11.59;58.96;93967.50;5110608;28;20109;-73
2023/12/03 04:03:40;;;;;;;8.77;2.67;;;;;;;11.70;58.37;93976.84;5076127;28;20039;-74
2023/12/03 04:06:06;;;;;;;10.23;2.60;;;;;;;11.55;58.46;93976.56;5111722;28;20024;-73
2023/12/03 04:08:32;;;;;;;10.55;2.60;;;;;;;11.47;58.37;93984.31;5090927;28;20027;-73
2023/12/03 04:10:57;;;;;;;11.48;2.50;;;;;;;11.48;59.15;93992.94;5093446;28;20127;-73
2023/12/03 04:13:24;;;;;;;8.02;2.35;;;;;;;11.48;58.34;93985.13;5093420;28;20036;-73
2023/12/03 04:15:49;;;;;;;10.77;2.80;;;;;;;11.51;58.99;93990.88;5110004;28;20031;-73
2023/12/03 04:18:15;;;;;;;8.48;2.95;;;;;;;11.45;59.07;93999.28;5110236;28;20466;-73
2023/12/03 04:20:40;;;;;;;10.55;2.97;;;;;;;11.54;59.27;94000.16;5093142;28;20104;-74
2023/12/03 04:23:06;;;;;;;13.13;2.40;;;;;;;11.43;59.72;94001.22;5093171;28;20062;-74
2023/12/03 04:25:31;;;;;;;11.82;2.33;;;;;;;11.18;60.79;93989.81;5110026;28;20027;-74
2023/12/03 04:27:57;;;;;;;10.27;2.35;;;;;;;11.35;60.97;93994.16;5066910;28;20063;-74
2023/12/03 04:30:22;;;;;;;7.80;2.55;;;;;;;11.30;61.05;94004.19;5089634;28;20521;-74
2023/12/03 04:32:48;;;;;;;9.88;2.42;;;;;;;11.08;61.53;94010.69;5089833;28;20048;-74
2023/12/03 04:35:14;;;;;;;6.57;2.22;;;;;;;11.25;61.71;93996.03;5091374;28;20078;-74
2023/12/03 04:37:39;;;;;;;10.48;2.22;;;;;;;11.13;61.65;94012.84;5106864;28;20039;-74
2023/12/03 04:40:05;;;;;;;8.88;2.00;;;;;;;11.16;62.24;94023.75;5111673;28;20081;-74
2023/12/03 04:42:31;;;;;;;10.15;2.40;;;;;;;11.03;63.12;94033.72;5109898;28;20044;-74
2023/12/03 04:44:56;;;;;;;9.43;2.60;;;;;;;10.87;62.22;94020.56;5074640;28;20470;-74
2023/12/03 04:47:22;;;;;;;8.25;2.65;;;;;;;10.96;62.83;94038.69;5092962;28;20111;-74
2023/12/03 04:49:47;;;;;;;11.88;2.88;;;;;;;11.03;63.22;94007.75;5114644;28;20416;-73
2023/12/03 04:52:12;;;;;;;12.43;4.28;;;;;;;11.17;62.71;94030.59;5096817;28;20515;-73
2023/12/03 04:54:38;;;;;;;10.32;2.70;;;;;;;11.19;62.95;94049.44;5114202;28;20413;-73
2023/12/03 04:57:04;;;;;;;9.68;2.78;;;;;;;11.22;62.96;94053.53;5114178;28;20024;-73
2023/12/03 04:59:29;;;;;;;10.23;3.00;;;;;;;10.89;63.54;94055.00;5114108;28;20039;-73
2023/12/03 05:01:55;;;;;;;11.88;3.25;;;;;;;10.98;63.94;94071.50;5075685;28;20035;-73
2023/12/03 05:04:23;;;;;;;12.40;3.08;;;;;;;10.87;64.47;94088.94;5093622;28;20032;-74
2023/12/03 05:06:48;;;;;;;11.02;2.88;;;;;;;10.84;65.86;94083.22;5077098;28;20418;-74
2023/12/03 05:09:15;;;;;;;12.50;2.80;;;;;;;10.62;64.63;94087.03;5094897;28;20031;-74
2023/12/03 05:11:41;;;;;;;10.32;3.60;;;;;;;10.78;64.47;94107.19;5093448;28;20059;-74
2023/12/03 05:14:06;;;;;;;6.68;2.53;;;;;;;10.71;63.34;94102.56;5093467;28;20478;-74
2023/12/03 05:16:31;;;;;;;9.40;2.05;;;;;;;10.58;63.33;94102.06;5093335;28;20028;-73
2023/12/03 05:18:57;;;;;;;9.88;2.33;;;;;;;10.68;63.30;94115.84;5092804;28;20331;-73
2023/12/03 05:21:22;;;;;;;13.52;2.50;;;;;;;10.88;62.75;94133.94;5089631;28;20039;-73
2023/12/03 05:23:48;;;;;;;10.98;2.78;;;;;;;10.89;61.97;94132.94;5100125;28;20028;-73
2023/12/03 05:26:13;;;;;;;11.35;2.40;;;;;;;10.89;61.59;94126.00;5092514;28;20412;-74
2023/12/03 05:28:39;;;;;;;12.70;2.85;;;;;;;10.88;62.02;94133.94;5088385;28;20039;-75
2023/12/03 05:31:04;;;;;;;10.23;2.70;;;;;;;10.87;62.11;94114.94;5087711;28;20036;-73
2023/12/03 05:33:30;;;;;;;8.65;2.80;;;;;;;10.94;63.21;94121.16;5073011;28;20113;-73
2023/12/03 05:35:55;;;;;;;12.70;2.67;;;;;;;10.08;62.78;94001.16;5108420;27;20039;-74
2023/12/03 05:38:21;;;;;;;10.52;2.17;;;;;;;10.77;63.05;94113.34;5092854;28;20036;-74
2023/12/03 05:40:46;;;;;;;9.63;2.63;;;;;;;11.07;62.29;94128.63;5057190;28;20113;-74
2023/12/03 05:43:14;;;;;;;10.77;2.10;;;;;;;11.05;62.44;94111.53;5089704;28;20478;-74
2023/12/03 05:45:40;;;;;;;9.27;2.40;;;;;;;11.07;62.78;94128.63;5123299;27;20506;-74
2023/12/03 05:48:05;;;;;;;7.40;2.47;;;;;;;11.24;63.18;94140.00;5106044;28;20052;-74
2023/12/03 05:50:30;;;;;;;6.30;1.67;;;;;;;11.15;62.87;94136.50;5071034;28;20035;-74
2023/12/03 05:52:56;;;;;;;8.55;2.10;;;;;;;11.16;63.19;94142.50;5122125;27;20035;-74
2023/12/03 05:55:21;;;;;;;10.30;2.10;;;;;;;11.15;63.80;94157.28;5072753;28;20043;-74
2023/12/03 05:57:47;;;;;;;10.20;2.38;;;;;;;11.15;64.23;94152.09;5091924;28;20122;-74
2023/12/03 06:00:13;;;;;;;8.95;2.40;;;;;;;11.09;64.37;94144.88;5092552;28;20047;-73
2023/12/03 06:02:38;;;;;;;8.98;2.20;;;;;;;11.15;64.87;94139.09;5096226;28;20089;-74
2023/12/03 06:05:04;;;;;;;44.35;23.42;;;;;;;11.03;64.85;94137.69;5088814;28;20032;-75
2023/12/03 06:07:29;;;;;;;12.73;2.72;;;;;;;11.19;65.05;94156.03;5057059;28;20067;-73
2023/12/03 06:09:55;;;;;;;10.85;2.10;;;;;;;11.16;65.27;94143.31;5088562;28;20028;-74
2023/12/03 06:12:20;;;;;;;7.07;2.00;;;;;;;11.23;65.26;94169.56;5089502;28;20039;-74
2023/12/03 06:14:46;;;;;;;8.95;2.28;;;;;;;11.04;65.01;94152.31;5071896;28;20031;-73
2023/12/03 06:17:11;;;;;;;5.20;1.70;;;;;;;11.16;65.32;94156.31;5087959;28;20082;-73
2023/12/03 06:19:37;;;;;;;8.13;2.10;;;;;;;11.15;65.54;94172.91;5087221;28;20036;-74
2023/12/03 06:22:02;;;;;;;6.68;1.90;;;;;;;10.94;66.06;94174.91;5089703;28;20077;-73
2023/12/03 06:24:28;;;;;;;6.50;1.95;;;;;;;11.03;66.07;94189.66;5090876;28;20532;-73
2023/12/03 06:26:54;;;;;;;8.23;1.90;;;;;;;11.06;66.68;94191.97;5087361;28;20043;-71
2023/12/03 06:29:19;;;;;;;10.50;2.90;;;;;;;11.07;65.93;94175.41;5089774;28;20075;-72
2023/12/03 06:31:46;;;;;;;11.18;1.80;;;;;;;11.10;65.25;94180.31;5088500;28;20125;-74
2023/12/03 06:34:12;;;;;;;8.38;2.00;;;;;;;11.15;65.04;94188.50;5053721;28;20039;-72
2023/12/03 06:36:37;;;;;;;11.18;2.30;;;;;;;11.09;65.27;94201.25;5094427;28;20035;-72
2023/12/03 06:39:02;;;;;;;11.07;2.97;;;;;;;11.08;65.52;94197.81;5087965;28;20032;-71
2023/12/03 06:41:28;;;;;;;12.40;3.03;;;;;;;11.12;65.69;94199.19;5072479;28;20044;-71
2023/12/03 06:43:53;;;;;;;9.85;3.03;;;;;;;11.11;65.98;94223.53;5085880;28;20032;-73
2023/12/03 06:46:19;;;;;;;6.18;2.33;;;;;;;11.12;66.72;94203.56;5091372;28;20085;-69
2023/12/03 06:48:44;;;;;;;7.07;2.40;;;;;;;11.16;66.42;94212.69;5088249;28;20100;-69
2023/12/03 06:51:10;;;;;;;11.63;2.60;;;;;;;11.24;66.84;94212.78;5088574;28;20028;-68
2023/12/03 06:53:35;;;;;;;10.43;3.22;;;;;;;11.28;66.43;94247.13;5068837;28;20043;-69
2023/12/03 06:56:01;;;;;;;8.30;2.45;;;;;;;11.23;66.93;94225.94;5090629;28;20024;-68
2023/12/03 06:58:26;;;;;;;18.13;10.15;;;;;;;11.35;66.87;94233.41;5073718;28;20031;-69
2023/12/03 07:00:52;;;;;;;9.15;2.95;;;;;;;11.43;67.88;94226.66;5085522;28;20039;-70
2023/12/03 07:03:17;;;;;;;11.60;4.07;;;;;;;11.30;67.03;94234.78;5069089;28;20085;-68
2023/12/03 07:05:43;;;;;;;7.78;2.78;;;;;;;11.33;68.33;94229.31;5087917;28;20043;-72
2023/12/03 07:08:09;;;;;;;11.73;2.72;;;;;;;11.43;68.10;94237.88;5087155;28;20482;-70
2023/12/03 07:10:34;;;;;;;7.35;2.72;;;;;;;11.41;68.27;94243.22;5086486;28;20034;-71
2023/12/03 07:12:59;;;;;;;8.48;2.33;;;;;;;11.35;69.41;94261.19;5089185;28;20405;-74
2023/12/03 07:15:25;;;;;;;7.68;2.00;;;;;;;11.38;68.98;94245.28;5088919;28;20034;-77
2023/12/03 07:17:50;;;;;;;13.95;5.00;;;;;;;11.37;68.89;94261.88;5054918;28;20039;-75
2023/12/03 07:20:18;;;;;;;9.75;2.97;;;;;;;11.29;68.97;94251.38;5069055;28;20090;-75
2023/12/03 07:22:43;;;;;;;22.00;13.40;;;;;;;11.23;69.84;94268.38;5092154;28;20107;-73
2023/12/03 07:25:09;;;;;;;13.15;4.38;;;;;;;11.26;68.71;94251.66;5056549;28;20085;-76
2023/12/03 07:27:34;;;;;;;11.30;4.68;;;;;;;11.38;68.51;94258.28;5056932;28;20039;-75
2023/12/03 07:30:00;;;;;;;11.88;4.07;;;;;;;11.49;68.44;94263.28;5069807;28;20040;-75
2023/12/03 07:32:25;;;;;;;7.78;2.65;;;;;;;11.52;68.42;94252.59;5086140;28;20033;-75
2023/12/03 07:34:51;;;;;;;6.93;2.92;;;;;;;11.49;69.42;94273.69;5069234;28;20032;-75
2023/12/03 07:37:16;;;;;;;9.40;2.90;;;;;;;11.49;69.71;94272.88;5095272;28;20500;-76
2023/12/03 07:39:42;;;;;;;11.25;2.65;;;;;;;11.39;69.81;94280.72;5070006;28;20036;-77
2023/12/03 07:42:07;;;;;;;8.35;2.10;;;;;;;11.36;71.02;94268.81;5075394;28;20089;-77
2023/12/03 07:44:33;;;;;;;8.65;2.50;;;;;;;11.48;69.96;94284.22;5085978;28;20031;-73
2023/12/03 07:46:58;;;;;;;6.93;2.55;;;;;;;11.49;69.87;94310.13;5085775;28;20077;-75
2023/12/03 07:49:24;;;;;;;7.57;2.38;;;;;;;11.50;70.52;94301.34;5073259;28;20036;-77
2023/12/03 07:51:49;;;;;;;9.77;2.33;;;;;;;11.51;70.64;94316.00;5089393;28;20082;-77
2023/12/03 07:54:16;;;;;;;8.55;2.15;;;;;;;11.28;70.39;94312.13;5063558;28;20027;-77
2023/12/03 07:56:41;;;;;;;7.88;2.40;;;;;;;11.07;70.95;94302.75;5092311;28;20032;-76
2023/12/03 07:59:07;;;;;;;8.77;2.67;;;;;;;11.39;71.38;94330.13;5086978;28;20044;-76
2023/12/03 08:01:33;;;;;;;6.97;2.20;;;;;;;11.09;72.55;94345.03;5123360;27;20040;-74
2023/12/03 08:03:58;;;;;;;8.02;2.60;;;;;;;11.28;72.87;94348.53;5062053;28;20059;-76
2023/12/03 08:06:24;;;;;;;9.55;3.63;;;;;;;11.08;73.51;94360.75;5087941;28;20032;-75
2023/12/03 08:08:53;;;;;;;20.15;10.82;;;;;;;10.82;74.21;94358.78;5086898;28;20486;-74
2023/12/03 08:11:19;;;;;;;20.00;9.88;;;;;;;10.50;75.58;94353.88;5073476;28;20609;-76
2023/12/03 08:13:45;;;;;;;21.73;9.70;;;;;;;10.55;76.56;94369.06;5067601;28;20036;-69
2023/12/03 08:16:11;;;;;;;18.50;7.53;;;;;;;10.69;75.99;94364.25;5081933;28;20031;-71
2023/12/03 08:18:37;;;;;;;14.13;4.93;;;;;;;10.84;76.20;94379.44;5078383;28;20036;-72
2023/12/03 08:21:03;;;;;;;12.95;3.80;;;;;;;10.84;76.91;94374.25;5066646;28;20123;-74
2023/12/03 08:23:29;;;;;;;18.30;8.32;;;;;;;10.21;78.84;94377.22;5064789;28;20055;-71
2023/12/03 08:25:56;;;;;;;10.52;4.40;;;;;;;10.38;78.68;94378.34;5097249;28;20020;-71
2023/12/03 08:28:21;;;;;;;13.18;5.95;;;;;;;10.35;79.30;94387.22;5094022;28;20022;-72
2023/12/03 08:30:47;;;;;;;13.52;8.35;;;;;;;10.44;78.98;94395.97;5096880;28;20055;-72
2023/12/03 08:33:14;;;;;;;15.65;8.55;;;;;;;10.17;80.09;94384.47;5072591;28;20063;-69
2023/12/03 08:35:39;;;;;;;15.45;6.38;;;;;;;10.04;78.87;94408.06;5090331;28;20085;-73
2023/12/03 08:38:04;;;;;;;10.68;6.00;;;;;;;9.88;78.04;94406.94;5086316;28;20493;-71
2023/12/03 08:40:30;;;;;;;13.38;7.22;;;;;;;9.72;77.63;94417.78;5082422;28;20035;-71
2023/12/03 08:42:56;;;;;;;17.45;11.35;;;;;;;9.57;78.20;94406.97;5085717;28;20031;-70
2023/12/03 08:45:21;;;;;;;16.48;13.07;;;;;;;9.59;77.79;94418.84;5086549;28;20043;-71
2023/12/03 08:47:46;;;;;;;14.18;9.68;;;;;;;9.45;77.90;94405.44;5086135;28;20055;-71
2023/12/03 08:50:12;;;;;;;10.60;7.35;;;;;;;9.42;77.61;94423.81;5062670;28;20031;-71
2023/12/03 08:52:37;;;;;;;11.77;7.55;;;;;;;9.19;77.58;94411.00;5052265;28;20040;-71
2023/12/03 08:55:04;;;;;;;9.40;7.25;;;;;;;8.67;78.83;94413.56;5086148;28;20032;-71
2023/12/03 08:57:29;;;;;;;13.45;7.60;;;;;;;8.66;78.31;94375.69;5084111;28;20032;-70
2023/12/03 08:59:55;;;;;;;10.82;6.90;;;;;;;8.46;78.81;94421.28;5067539;28;20108;-70
2023/12/03 09:02:20;;;;;;;10.45;7.05;;;;;;;8.37;79.25;94421.19;5086368;28;20075;-70
2023/12/03 09:04:46;;;;;;;11.70;6.88;;;;;;;8.19;79.46;94436.41;5050903;28;20044;-71
2023/12/03 09:07:12;;;;;;;13.70;8.88;;;;;;;8.00;79.61;94414.59;5066471;28;20349;-71
2023/12/03 09:09:37;;;;;;;17.70;10.38;;;;;;;8.00;78.81;94421.53;5069383;28;20036;-70
2023/12/03 09:12:03;;;;;;;16.00;9.93;;;;;;;8.08;79.21;94434.69;5117155;27;20036;-69
2023/12/03 09:14:28;;;;;;;11.95;9.02;;;;;;;8.12;79.59;94435.25;5084457;28;20121;-68
2023/12/03 09:16:54;;;;;;;12.45;7.88;;;;;;;8.09;78.99;94430.34;5085026;28;20483;-69
2023/12/03 09:19:20;;;;;;;10.30;7.45;;;;;;;7.95;78.32;94447.75;5082928;28;20062;-68
2023/12/03 09:21:46;;;;;;;9.10;7.32;;;;;;;7.74;77.93;94441.66;5086223;28;20052;-71
2023/12/03 09:24:12;;;;;;;14.10;8.75;;;;;;;7.67;77.80;94440.50;5081761;28;20028;-66
2023/12/03 09:26:37;;;;;;;10.50;7.55;;;;;;;7.45;77.63;94439.56;5067925;28;20494;-70
2023/12/03 09:29:04;;;;;;;11.73;7.38;;;;;;;7.53;77.58;94460.47;5093380;28;20055;-69
2023/12/03 09:31:29;;;;;;;10.90;6.82;;;;;;;7.50;77.69;94463.31;5068581;28;20546;-67
2023/12/03 09:33:55;;;;;;;12.20;8.60;;;;;;;7.31;78.27;94452.72;5094335;28;20032;-68
2023/12/03 09:36:20;;;;;;;12.73;8.93;;;;;;;7.21;78.45;94449.97;5082273;28;20039;-69
2023/12/03 09:38:46;;;;;;;14.63;8.90;;;;;;;7.17;78.16;94446.00;5110279;28;20043;-68
2023/12/03 09:41:13;;;;;;;19.63;11.65;;;;;;;7.13;78.43;94453.16;5086424;28;20031;-76
2023/12/03 09:43:39;;;;;;;16.58;11.95;;;;;;;7.19;79.46;94461.38;5096257;28;20123;-75
2023/12/03 09:46:06;;;;;;;13.48;8.52;;;;;;;7.01;79.60;94461.00;5086130;28;20508;-72
2023/12/03 09:48:32;;;;;;;15.60;10.52;;;;;;;6.98;80.04;94453.47;5107053;28;20023;-71
2023/12/03 09:50:57;;;;;;;12.40;8.18;;;;;;;6.82;80.03;94440.88;5098486;28;20030;-71
2023/12/03 09:53:23;;;;;;;12.82;9.88;;;;;;;6.87;80.33;94454.28;5091452;28;20040;-73
2023/12/03 09:55:48;;;;;;;13.02;9.18;;;;;;;6.70;81.38;94469.22;5093026;28;20027;-79
2023/12/03 09:58:15;;;;;;;10.10;7.18;;;;;;;6.61;80.63;94464.75;5076400;28;20038;-75
2023/12/03 10:00:40;;;;;;;14.18;8.50;;;;;;;6.68;81.11;94473.69;5091579;28;20058;-76
2023/12/03 10:03:08;;;;;;;13.18;8.15;;;;;;;6.68;80.53;94465.13;5076219;28;20028;-70
2023/12/03 10:05:33;;;;;;;12.48;8.50;;;;;;;6.74;80.51;94466.44;5081015;28;20554;-71
2023/12/03 10:07:58;;;;;;;11.80;8.68;;;;;;;6.61;80.78;94472.50;5072047;28;20017;-77
2023/12/03 10:10:28;;;;;;;10.15;7.78;;;;;;;6.55;81.43;94490.19;5064169;28;20104;-78
2023/12/03 10:12:54;;;;;;;11.25;8.35;;;;;;;6.46;81.01;94505.41;5077498;28;20089;-74
2023/12/03 10:15:20;;;;;;;12.80;8.52;;;;;;;6.56;80.23;94497.00;5076626;28;20028;-74
2023/12/03 10:17:46;;;;;;;13.20;8.90;;;;;;;6.57;79.57;94501.22;5086036;28;20031;-79
2023/12/03 10:20:26;;;;;;;11.52;8.88;;;;;;;6.57;80.08;94502.03;5084112;28;20040;-78
2023/12/03 10:22:55;;;;;;;14.10;11.13;;;;;;;6.19;80.04;94505.59;5075232;28;20456;-71
2023/12/03 10:25:26;;;;;;;13.57;9.93;;;;;;;6.30;80.22;94527.25;5093132;28;20079;-70
2023/12/03 10:27:53;;;;;;;;;;;;;;;6.40;80.11;94535.97;5093687;28;20082;-69
2023/12/03 10:30:18;;;;;;;15.90;10.18;;;;;;;6.07;79.39;94537.38;5094610;28;19919;-72
2023/12/03 10:32:45;;;;;;;13.70;9.05;;;;;;;6.02;79.69;94534.31;5082612;28;20039;-73
2023/12/03 10:35:10;;;;;;;12.68;9.18;;;;;;;5.63;79.96;94532.66;5103606;28;20024;-75
2023/12/03 10:37:37;;;;;;;11.05;7.72;;;;;;;5.65;80.27;94533.41;5061083;28;20085;-74
2023/12/03 10:40:02;;;;;;;14.57;8.30;;;;;;;5.62;80.62;94524.13;5086871;28;20027;-70
2023/12/03 10:42:29;;;;;;;12.90;7.95;;;;;;;5.86;80.23;94534.53;5102992;28;20387;-74
2023/12/03 10:44:54;;;;;;;13.20;8.50;;;;;;;5.58;79.88;94544.13;5082266;28;20077;-68
2023/12/03 10:47:21;;;;;;;10.85;6.68;;;;;;;5.45;79.71;94543.28;5091043;28;20028;-73
2023/12/03 10:49:46;;;;;;;14.35;9.05;;;;;;;5.83;80.31;94545.03;5075799;28;20036;-73
2023/12/03 10:52:12;;;;;;;12.80;8.68;;;;;;;5.87;79.23;94540.50;5087823;28;20032;-75
2023/12/03 10:54:38;;;;;;;12.73;8.10;;;;;;;5.93;78.96;94552.97;5073530;28;20136;-72
2023/12/03 10:57:03;;;;;;;12.57;7.90;;;;;;;5.97;79.25;94559.59;5073978;28;20413;-74
2023/12/03 10:59:29;;;;;;;10.70;7.35;;;;;;;5.95;78.59;94558.88;5084083;28;20039;-74
2023/12/03 11:01:55;;;;;;;11.05;8.02;;;;;;;5.87;79.46;94550.81;5100789;28;20074;-72
2023/12/03 11:04:20;;;;;;;11.18;7.55;;;;;;;5.92;78.71;94553.91;5083715;28;20036;-75
2023/12/03 11:06:46;;;;;;;12.60;8.70;;;;;;;5.73;78.71;94552.56;5089515;28;20024;-75
2023/12/03 11:09:12;;;;;;;11.15;7.10;;;;;;;5.73;77.59;94534.53;5072699;28;20047;-74
2023/12/03 11:11:38;;;;;;;13.63;8.00;;;;;;;5.71;78.25;94557.03;5107664;28;20028;-73
2023/12/03 11:14:05;;;;;;;9.68;6.97;;;;;;;5.71;78.20;94548.44;5072969;28;20036;-73
2023/12/03 11:17:03;;;;;;;11.68;7.60;;;;;;;5.78;77.92;94547.94;5092860;28;20032;-72
2023/12/03 11:19:29;;;;;;;10.52;6.95;;;;;;;5.73;78.72;94538.84;5088162;28;20101;-72
2023/12/03 11:22:32;;;;;;;12.75;8.45;;;;;;;5.72;79.27;94547.53;5076660;28;20028;-73